createdAt,value
2019-05-19T00:01:04.870Z,100.00
2019-05-19T00:03:36.535Z,100.00
2019-05-19T00:06:08.240Z,100.00
2019-05-19T00:08:40.062Z,100.00
2019-05-19T00:11:11.713Z,100.00
2019-05-19T00:13:43.474Z,100.00
2019-05-19T00:16:16.958Z,100.00
2019-05-19T00:18:48.966Z,100.00
2019-05-19T00:21:20.889Z,100.00
2019-05-19T00:23:52.536Z,100.00
2019-05-19T00:26:27.008Z,100.00
2019-05-19T00:28:59.067Z,100.00
2019-05-19T00:31:31.814Z,100.00
2019-05-19T00:34:03.564Z,100.00
2019-05-19T00:36:36.598Z,100.00
2019-05-19T00:39:08.590Z,100.00
2019-05-19T00:41:40.228Z,100.00
2019-05-19T00:44:11.768Z,100.00
2019-05-19T00:46:44.224Z,100.00
2019-05-19T00:49:18.834Z,100.00
2019-05-19T00:51:50.796Z,100.00
2019-05-19T00:54:27.731Z,100.00
2019-05-19T00:56:59.620Z,100.00
2019-05-19T00:59:31.815Z,100.00
2019-05-19T01:02:03.411Z,100.00
2019-05-19T01:04:35.067Z,100.00
2019-05-19T01:07:06.682Z,100.00
2019-05-19T01:09:38.618Z,100.00
2019-05-19T01:12:10.253Z,100.00
2019-05-19T01:14:41.955Z,100.00
2019-05-19T01:17:13.726Z,100.00
2019-05-19T01:19:55.618Z,100.00
2019-05-19T01:22:19.978Z,100.00
2019-05-19T01:24:51.755Z,100.00
2019-05-19T01:27:23.866Z,100.00
2019-05-19T01:29:55.623Z,100.00
2019-05-19T01:32:27.496Z,100.00
2019-05-19T01:34:59.659Z,100.00
2019-05-19T01:37:32.088Z,100.00
2019-05-19T01:40:05.512Z,100.00
2019-05-19T01:42:37.415Z,100.00
2019-05-19T01:45:11.271Z,100.00
2019-05-19T01:47:43.289Z,100.00
2019-05-19T01:50:18.038Z,100.00
2019-05-19T01:52:50.237Z,100.00
2019-05-19T01:55:22.267Z,100.00
2019-05-19T01:57:54.373Z,100.00
2019-05-19T02:00:26.540Z,100.00
2019-05-19T02:02:58.332Z,100.00
2019-05-19T02:05:30.181Z,100.00
2019-05-19T02:08:01.987Z,100.00
2019-05-19T02:10:35.054Z,100.00
2019-05-19T02:13:06.826Z,100.00
2019-05-19T02:15:38.676Z,100.00
2019-05-19T02:18:10.355Z,100.00
2019-05-19T02:20:42.581Z,100.00
2019-05-19T02:23:14.552Z,100.00
2019-05-19T02:25:46.333Z,100.00
2019-05-19T02:28:18.380Z,100.00
2019-05-19T02:30:50.768Z,100.00
2019-05-19T02:33:23.189Z,100.00
2019-05-19T02:35:55.375Z,100.00
2019-05-19T02:38:27.115Z,100.00
2019-05-19T02:41:02.117Z,100.00
2019-05-19T02:43:35.968Z,100.00
2019-05-19T02:46:17.998Z,100.00
2019-05-19T02:49:03.955Z,100.00
2019-05-19T02:51:39.697Z,100.00
2019-05-19T02:54:21.787Z,100.00
2019-05-19T02:57:05.880Z,100.00
2019-05-19T02:59:51.725Z,100.00
2019-05-19T03:02:36.273Z,100.00
2019-05-19T03:05:17.591Z,100.00
2019-05-19T03:08:01.010Z,100.00
2019-05-19T03:10:44.740Z,100.00
2019-05-19T03:13:19.573Z,100.00
2019-05-19T03:15:52.984Z,100.00
2019-05-19T03:18:40.656Z,100.00
2019-05-19T03:21:24.967Z,100.00
2019-05-19T03:24:08.270Z,100.00
2019-05-19T03:26:48.682Z,100.00
2019-05-19T03:29:28.678Z,100.00
2019-05-19T03:32:21.270Z,100.00
2019-05-19T03:34:58.719Z,100.00
2019-05-19T03:37:30.477Z,100.00
2019-05-19T03:40:04.380Z,100.00
2019-05-19T03:42:36.505Z,100.00
2019-05-19T03:45:08.161Z,100.00
2019-05-19T03:47:39.882Z,100.00
2019-05-19T03:50:12.066Z,100.00
2019-05-19T03:52:44.055Z,100.00
2019-05-19T03:55:15.982Z,100.00
2019-05-19T03:57:47.826Z,100.00
2019-05-19T04:00:20.039Z,100.00
2019-05-19T04:02:51.838Z,100.00
2019-05-19T04:05:25.920Z,100.00
2019-05-19T04:07:57.938Z,100.00
2019-05-19T04:10:30.310Z,100.00
2019-05-19T04:13:02.122Z,100.00
2019-05-19T04:15:33.780Z,100.00
2019-05-19T04:18:05.680Z,100.00
2019-05-19T04:20:37.267Z,100.00
2019-05-19T04:23:09.489Z,100.00
2019-05-19T04:25:41.177Z,100.00
2019-05-19T04:28:12.702Z,100.00
2019-05-19T04:30:45.616Z,100.00
2019-05-19T04:33:17.766Z,100.00
2019-05-19T04:35:50.556Z,100.00
2019-05-19T04:38:22.465Z,100.00
2019-05-19T04:40:55.838Z,100.00
2019-05-19T04:43:28.063Z,100.00
2019-05-19T04:45:59.752Z,100.00
2019-05-19T04:48:32.114Z,100.00
2019-05-19T04:51:05.731Z,100.00
2019-05-19T04:53:37.450Z,100.00
2019-05-19T04:56:09.604Z,100.00
2019-05-19T04:58:41.455Z,100.00
2019-05-19T05:01:13.227Z,100.00
2019-05-19T05:03:44.990Z,100.00
2019-05-19T05:06:16.797Z,100.00
2019-05-19T05:08:50.542Z,100.00
2019-05-19T05:11:25.208Z,100.00
2019-05-19T05:14:04.084Z,100.00
2019-05-19T05:16:37.839Z,100.00
2019-05-19T05:19:10.172Z,100.00
2019-05-19T05:21:42.942Z,100.00
2019-05-19T05:24:22.201Z,100.00
2019-05-19T05:26:54.199Z,100.00
2019-05-19T05:29:25.963Z,100.00
2019-05-19T05:32:06.916Z,100.00
2019-05-19T05:34:50.520Z,100.00
2019-05-19T05:37:42.630Z,100.00
2019-05-19T05:40:14.529Z,100.00
2019-05-19T05:42:46.244Z,100.00
2019-05-19T05:45:19.144Z,100.00
2019-05-19T05:47:51.112Z,100.00
2019-05-19T05:50:22.853Z,100.00
2019-05-19T05:53:09.568Z,100.00
2019-05-19T05:55:54.246Z,100.00
2019-05-19T05:58:40.357Z,100.00
2019-05-19T06:01:12.884Z,100.00
2019-05-19T06:03:57.973Z,100.00
2019-05-19T06:06:45.993Z,100.00
2019-05-19T06:09:26.633Z,100.00
2019-05-19T06:12:01.125Z,100.00
2019-05-19T06:14:33.064Z,100.00
2019-05-19T06:17:10.204Z,100.00
2019-05-19T06:19:53.731Z,100.00
2019-05-19T06:22:36.950Z,100.00
2019-05-19T06:25:11.418Z,100.00
2019-05-19T06:27:54.202Z,100.00
2019-05-19T06:30:38.418Z,100.00
2019-05-19T06:33:22.705Z,100.00
2019-05-19T06:36:04.674Z,100.00
2019-05-19T06:38:59.361Z,100.00
2019-05-19T06:41:45.056Z,100.00
2019-05-19T06:44:27.098Z,100.00
2019-05-19T06:47:07.411Z,100.00
2019-05-19T06:49:43.229Z,94.33
2019-05-19T06:52:27.740Z,95.56
2019-05-19T06:55:08.276Z,94.45
2019-05-19T06:57:45.212Z,94.58
2019-05-19T07:00:18.749Z,92.39
2019-05-19T07:02:50.535Z,90.22
2019-05-19T07:05:22.493Z,87.33
2019-05-19T07:07:57.008Z,87.09
2019-05-19T07:10:47.571Z,86.98
2019-05-19T07:13:24.832Z,83.20
2019-05-19T07:16:11.498Z,83.00
2019-05-19T07:18:59.966Z,78.63
2019-05-19T07:21:37.956Z,79.05
2019-05-19T07:24:09.731Z,78.06
2019-05-19T07:26:41.977Z,78.99
2019-05-19T07:29:21.895Z,79.36
2019-05-19T07:31:55.400Z,77.76
2019-05-19T07:34:27.155Z,78.13
2019-05-19T07:37:00.190Z,78.61
2019-05-19T07:39:38.213Z,79.42
2019-05-19T07:42:25.727Z,78.80
2019-05-19T07:45:05.963Z,77.10
2019-05-19T07:47:50.447Z,69.73
2019-05-19T07:50:37.976Z,66.69
2019-05-19T07:53:19.412Z,68.88
2019-05-19T07:55:52.481Z,65.19
2019-05-19T07:58:24.291Z,66.38
2019-05-19T08:00:56.152Z,53.15
2019-05-19T08:03:35.703Z,51.83
2019-05-19T08:06:20.836Z,54.80
2019-05-19T08:09:02.199Z,53.47
2019-05-19T08:11:51.747Z,52.65
2019-05-19T08:14:40.421Z,53.24
2019-05-19T08:17:18.114Z,57.49
2019-05-19T08:19:59.321Z,56.88
2019-05-19T08:22:42.683Z,53.30
2019-05-19T08:25:16.618Z,52.18
2019-05-19T08:27:48.495Z,51.72
2019-05-19T08:30:20.972Z,54.23
2019-05-19T08:33:03.187Z,49.70
2019-05-19T08:35:45.711Z,50.67
2019-05-19T08:38:21.536Z,49.46
2019-05-19T08:40:57.124Z,48.17
2019-05-19T08:43:32.814Z,51.09
2019-05-19T08:46:04.497Z,53.14
2019-05-19T08:48:36.683Z,52.06
2019-05-19T08:51:08.700Z,48.96
2019-05-19T08:53:41.293Z,58.85
2019-05-19T08:56:12.902Z,63.81
2019-05-19T08:58:47.169Z,64.17
2019-05-19T09:01:18.878Z,67.10
2019-05-19T09:03:50.429Z,69.22
2019-05-19T09:06:24.350Z,65.62
2019-05-19T09:08:56.154Z,62.79
2019-05-19T09:11:27.645Z,63.36
2019-05-19T09:13:59.284Z,66.30
2019-05-19T09:16:39.939Z,65.13
2019-05-19T09:19:11.670Z,63.59
2019-05-19T09:21:43.374Z,62.90
2019-05-19T09:24:29.559Z,63.43
2019-05-19T09:26:51.121Z,63.39
2019-05-19T09:29:22.960Z,64.37
2019-05-19T09:31:54.586Z,66.07
2019-05-19T09:34:26.522Z,65.73
2019-05-19T09:36:58.904Z,62.90
2019-05-19T09:39:30.907Z,61.93
2019-05-19T09:42:02.569Z,59.89
2019-05-19T09:44:34.130Z,62.30
2019-05-19T09:47:11.150Z,58.38
2019-05-19T09:49:44.084Z,58.53
2019-05-19T09:52:17.192Z,56.98
2019-05-19T09:54:50.651Z,58.21
2019-05-19T09:57:25.528Z,61.83
2019-05-19T09:59:56.276Z,57.76
2019-05-19T10:02:28.061Z,58.00
2019-05-19T10:05:00.607Z,57.95
2019-05-19T10:07:34.454Z,58.75
2019-05-19T10:10:08.060Z,56.72
2019-05-19T10:12:39.978Z,60.02
2019-05-19T10:15:13.134Z,61.08
2019-05-19T10:17:44.858Z,64.67
2019-05-19T10:20:17.761Z,62.69
2019-05-19T10:22:49.343Z,63.13
2019-05-19T10:25:22.950Z,63.33
2019-05-19T10:27:54.728Z,64.15
2019-05-19T10:30:26.430Z,61.86
2019-05-19T10:32:58.822Z,60.23
2019-05-19T10:35:30.696Z,58.46
2019-05-19T10:38:02.393Z,60.54
2019-05-19T10:40:34.097Z,58.27
2019-05-19T10:43:07.435Z,57.11
2019-05-19T10:45:40.850Z,56.26
2019-05-19T10:48:12.847Z,58.03
2019-05-19T10:50:44.494Z,58.05
2019-05-19T10:53:16.172Z,58.54
2019-05-19T10:55:48.096Z,59.13
2019-05-19T10:58:26.348Z,61.07
2019-05-19T11:00:58.764Z,63.75
2019-05-19T11:03:30.643Z,61.70
2019-05-19T11:06:21.136Z,61.05
2019-05-19T11:08:52.814Z,59.19
2019-05-19T11:11:24.641Z,60.10
2019-05-19T11:13:56.639Z,62.25
2019-05-19T11:16:28.322Z,59.78
2019-05-19T11:18:59.864Z,61.80
2019-05-19T11:21:34.069Z,61.43
2019-05-19T11:24:06.285Z,59.20
2019-05-19T11:26:38.534Z,58.20
2019-05-19T11:29:10.580Z,58.49
2019-05-19T11:31:44.625Z,61.17
2019-05-19T11:34:16.309Z,60.31
2019-05-19T11:36:47.935Z,61.05
2019-05-19T11:39:20.672Z,60.64
2019-05-19T11:41:52.307Z,59.92
2019-05-19T11:44:24.068Z,60.24
2019-05-19T11:46:56.164Z,59.61
2019-05-19T11:49:27.695Z,59.96
2019-05-19T11:51:59.544Z,59.63
2019-05-19T11:54:31.094Z,60.73
2019-05-19T11:57:02.733Z,61.49
2019-05-19T11:59:34.492Z,59.93
2019-05-19T12:02:06.232Z,60.53
2019-05-19T12:04:37.810Z,60.48
2019-05-19T12:07:09.567Z,60.30
2019-05-19T12:09:41.295Z,61.32
2019-05-19T12:12:13.102Z,59.71
2019-05-19T12:14:44.744Z,59.43
2019-05-19T12:17:17.419Z,61.29
2019-05-19T12:19:49.365Z,60.38
2019-05-19T12:22:20.942Z,58.19
2019-05-19T12:24:52.684Z,59.53
2019-05-19T12:27:24.265Z,59.60
2019-05-19T12:29:56.036Z,60.54
2019-05-19T12:32:27.588Z,59.93
2019-05-19T12:34:59.209Z,60.71
2019-05-19T12:37:30.950Z,62.17
2019-05-19T12:40:02.490Z,62.78
2019-05-19T12:42:34.228Z,63.12
2019-05-19T12:45:06.441Z,62.10
2019-05-19T12:47:38.068Z,62.85
2019-05-19T12:50:10.239Z,63.91
2019-05-19T12:52:41.912Z,63.47
2019-05-19T12:55:14.111Z,64.09
2019-05-19T12:57:45.598Z,62.56
2019-05-19T13:00:17.368Z,63.26
2019-05-19T13:02:51.270Z,64.13
2019-05-19T13:05:22.738Z,65.02
2019-05-19T13:07:54.563Z,66.53
2019-05-19T13:10:26.242Z,66.93
2019-05-19T13:12:57.880Z,66.27
2019-05-19T13:15:29.812Z,67.10
2019-05-19T13:18:01.361Z,68.67
2019-05-19T13:20:32.979Z,68.28
2019-05-19T13:23:04.689Z,68.72
2019-05-19T13:25:36.625Z,66.71
2019-05-19T13:28:08.392Z,67.29
2019-05-19T13:30:43.442Z,68.47
2019-05-19T13:33:13.626Z,67.61
2019-05-19T13:35:45.407Z,67.24
2019-05-19T13:38:17.055Z,68.99
2019-05-19T13:40:48.624Z,67.20
2019-05-19T13:43:20.281Z,68.95
2019-05-19T13:45:52.212Z,69.70
2019-05-19T13:48:24.035Z,71.57
2019-05-19T13:50:55.737Z,68.73
2019-05-19T13:53:27.540Z,67.89
2019-05-19T13:55:59.127Z,69.32
2019-05-19T13:58:30.797Z,67.52
2019-05-19T14:01:02.599Z,67.43
2019-05-19T14:03:34.539Z,63.98
2019-05-19T14:06:06.215Z,65.13
2019-05-19T14:08:37.748Z,64.85
2019-05-19T14:11:09.435Z,65.07
2019-05-19T14:13:41.236Z,64.54
2019-05-19T14:16:12.908Z,65.25
2019-05-19T14:18:44.795Z,64.56
2019-05-19T14:21:16.805Z,64.94
2019-05-19T14:23:48.493Z,64.06
2019-05-19T14:26:20.209Z,63.61
2019-05-19T14:28:51.702Z,65.26
2019-05-19T14:31:23.698Z,65.44
2019-05-19T14:33:55.505Z,62.58
2019-05-19T14:36:27.103Z,61.71
2019-05-19T14:39:05.246Z,62.10
2019-05-19T14:41:39.813Z,60.65
2019-05-19T14:44:11.570Z,61.99
2019-05-19T14:46:43.324Z,62.51
2019-05-19T14:49:14.898Z,62.68
2019-05-19T14:51:46.556Z,64.87
2019-05-19T14:54:18.433Z,64.91
2019-05-19T14:56:50.281Z,66.98
2019-05-19T14:59:22.123Z,67.09
2019-05-19T15:01:53.931Z,67.82
2019-05-19T15:04:30.811Z,66.99
2019-05-19T15:07:02.640Z,66.74
2019-05-19T15:09:34.527Z,68.24
2019-05-19T15:12:06.454Z,67.70
2019-05-19T15:14:38.300Z,69.11
2019-05-19T15:17:10.094Z,68.15
2019-05-19T15:19:41.842Z,67.62
2019-05-19T15:22:13.774Z,67.36
2019-05-19T15:24:45.518Z,67.50
2019-05-19T15:27:17.228Z,69.07
2019-05-19T15:29:48.828Z,68.58
2019-05-19T15:32:20.727Z,68.58
2019-05-19T15:34:53.134Z,69.34
2019-05-19T15:37:24.804Z,68.40
2019-05-19T15:39:56.545Z,71.16
2019-05-19T15:42:28.268Z,72.49
2019-05-19T15:44:59.841Z,72.38
2019-05-19T15:47:33.006Z,71.79
2019-05-19T15:50:06.368Z,71.37
2019-05-19T15:52:39.203Z,71.13
2019-05-19T15:55:11.484Z,70.67
2019-05-19T15:57:43.210Z,70.77
2019-05-19T16:00:15.553Z,70.79
2019-05-19T16:02:47.433Z,72.24
2019-05-19T16:05:19.333Z,73.25
2019-05-19T16:07:52.179Z,73.62
2019-05-19T16:10:23.936Z,72.48
2019-05-19T16:12:55.789Z,73.48
2019-05-19T16:15:28.463Z,73.81
2019-05-19T16:18:00.189Z,74.00
2019-05-19T16:20:31.697Z,75.04
2019-05-19T16:23:03.532Z,75.89
2019-05-19T16:25:35.199Z,75.21
2019-05-19T16:28:07.055Z,76.66
2019-05-19T16:30:38.760Z,78.21
2019-05-19T16:33:12.339Z,78.44
2019-05-19T16:35:43.963Z,78.96
2019-05-19T16:38:16.931Z,80.27
2019-05-19T16:40:48.499Z,79.52
2019-05-19T16:43:21.497Z,80.49
2019-05-19T16:45:53.151Z,81.73
2019-05-19T16:48:24.752Z,81.57
2019-05-19T16:50:57.861Z,82.39
2019-05-19T16:53:29.237Z,83.28
2019-05-19T16:56:02.466Z,83.62
2019-05-19T16:58:44.953Z,84.24
2019-05-19T17:01:07.870Z,84.62
2019-05-19T17:03:39.447Z,84.56
2019-05-19T17:06:11.057Z,84.86
2019-05-19T17:08:42.559Z,85.10
2019-05-19T17:11:18.489Z,84.36
2019-05-19T17:13:47.448Z,84.43
2019-05-19T17:16:20.149Z,84.15
2019-05-19T17:18:51.676Z,84.53
2019-05-19T17:21:23.349Z,84.69
2019-05-19T17:23:55.119Z,84.43
2019-05-19T17:26:28.382Z,84.94
2019-05-19T17:29:01.990Z,84.92
2019-05-19T17:31:41.281Z,84.17
2019-05-19T17:34:15.276Z,83.06
2019-05-19T17:36:46.970Z,81.80
2019-05-19T17:39:22.001Z,80.56
2019-05-19T17:41:54.090Z,80.51
2019-05-19T17:44:27.951Z,80.68
2019-05-19T17:46:59.577Z,80.37
2019-05-19T17:49:31.209Z,81.16
2019-05-19T17:52:03.132Z,81.24
2019-05-19T17:54:34.863Z,81.14
2019-05-19T17:57:06.768Z,82.14
2019-05-19T17:59:40.228Z,82.43
2019-05-19T18:02:11.855Z,83.98
2019-05-19T18:04:43.568Z,84.31
2019-05-19T18:07:16.223Z,85.34
2019-05-19T18:09:47.870Z,85.17
2019-05-19T18:12:22.729Z,86.26
2019-05-19T18:14:54.480Z,86.70
2019-05-19T18:17:26.728Z,86.65
2019-05-19T18:19:58.860Z,87.07
2019-05-19T18:22:30.674Z,86.24
2019-05-19T18:25:02.831Z,86.21
2019-05-19T18:27:34.449Z,86.69
2019-05-19T18:30:06.278Z,87.59
2019-05-19T18:32:37.829Z,88.45
2019-05-19T18:35:09.396Z,89.47
2019-05-19T18:37:41.039Z,91.09
2019-05-19T18:40:12.568Z,90.76
2019-05-19T18:42:44.131Z,91.04
2019-05-19T18:45:16.007Z,91.83
2019-05-19T18:47:47.623Z,92.88
2019-05-19T18:50:19.563Z,94.07
2019-05-19T18:52:51.338Z,95.26
2019-05-19T18:55:23.016Z,96.34
2019-05-19T18:57:54.477Z,97.35
2019-05-19T19:00:36.867Z,97.79
2019-05-19T19:03:09.091Z,98.56
2019-05-19T19:05:40.784Z,99.33
2019-05-19T19:08:12.195Z,98.46
2019-05-19T19:10:43.899Z,95.97
2019-05-19T19:13:15.415Z,94.41
2019-05-19T19:15:47.185Z,94.33
2019-05-19T19:18:18.790Z,95.64
2019-05-19T19:20:51.732Z,96.45
2019-05-19T19:23:24.421Z,99.08
2019-05-19T19:25:56.112Z,100.00
2019-05-19T19:28:27.715Z,100.00
2019-05-19T19:30:59.670Z,100.00
2019-05-19T19:33:31.210Z,100.00
2019-05-19T19:36:02.891Z,100.00
2019-05-19T19:38:36.150Z,100.00
2019-05-19T19:41:07.868Z,100.00
2019-05-19T19:43:39.679Z,100.00
2019-05-19T19:46:11.260Z,100.00
2019-05-19T19:48:42.887Z,100.00
2019-05-19T19:51:14.441Z,100.00
2019-05-19T19:53:46.251Z,100.00
2019-05-19T19:56:17.893Z,100.00
2019-05-19T19:58:50.518Z,100.00
2019-05-19T20:01:22.244Z,100.00
2019-05-19T20:03:53.958Z,100.00
2019-05-19T20:06:27.045Z,100.00
2019-05-19T20:08:58.629Z,100.00
2019-05-19T20:11:30.458Z,100.00
2019-05-19T20:14:02.146Z,100.00
2019-05-19T20:16:33.823Z,100.00
2019-05-19T20:19:05.744Z,100.00
2019-05-19T20:21:37.362Z,100.00
2019-05-19T20:24:09.304Z,100.00
2019-05-19T20:26:40.842Z,100.00
2019-05-19T20:29:13.465Z,100.00
2019-05-19T20:31:45.092Z,100.00
2019-05-19T20:34:16.747Z,100.00
2019-05-19T20:36:48.395Z,100.00
2019-05-19T20:39:20.333Z,100.00
2019-05-19T20:41:51.923Z,100.00
2019-05-19T20:44:23.586Z,100.00
2019-05-19T20:46:57.594Z,100.00
2019-05-19T20:49:29.201Z,100.00
2019-05-19T20:52:01.417Z,100.00
2019-05-19T20:54:33.536Z,100.00
2019-05-19T20:57:05.247Z,100.00
2019-05-19T20:59:38.318Z,100.00
2019-05-19T21:02:11.252Z,100.00
2019-05-19T21:04:42.854Z,100.00
2019-05-19T21:07:14.802Z,100.00
2019-05-19T21:09:46.418Z,100.00
2019-05-19T21:12:18.117Z,100.00
2019-05-19T21:14:50.694Z,100.00
2019-05-19T21:17:22.738Z,100.00
2019-05-19T21:19:55.095Z,100.00
2019-05-19T21:22:29.128Z,100.00
2019-05-19T21:25:00.922Z,100.00
2019-05-19T21:27:33.405Z,100.00
2019-05-19T21:30:06.009Z,100.00
2019-05-19T21:32:37.692Z,100.00
2019-05-19T21:35:09.372Z,100.00
2019-05-19T21:37:40.984Z,100.00
2019-05-19T21:40:13.739Z,100.00
2019-05-19T21:42:45.559Z,100.00
2019-05-19T21:45:17.267Z,100.00
2019-05-19T21:47:48.915Z,100.00
2019-05-19T21:50:20.964Z,100.00
2019-05-19T21:52:55.326Z,100.00
2019-05-19T21:55:28.041Z,100.00
2019-05-19T21:57:59.755Z,100.00
2019-05-19T22:00:33.233Z,100.00
2019-05-19T22:03:05.309Z,100.00
2019-05-19T22:05:52.519Z,100.00
2019-05-19T22:08:16.048Z,100.00
2019-05-19T22:10:47.906Z,100.00
2019-05-19T22:13:19.695Z,100.00
2019-05-19T22:15:52.032Z,100.00
2019-05-19T22:18:24.689Z,100.00
2019-05-19T22:20:56.314Z,100.00
2019-05-19T22:23:28.520Z,100.00
2019-05-19T22:26:00.632Z,100.00
2019-05-19T22:28:32.806Z,100.00
2019-05-19T22:31:04.979Z,100.00
2019-05-19T22:33:36.682Z,100.00
2019-05-19T22:36:08.363Z,100.00
2019-05-19T22:38:42.138Z,100.00
2019-05-19T22:41:13.906Z,100.00
2019-05-19T22:43:45.506Z,100.00
2019-05-19T22:46:17.246Z,100.00
2019-05-19T22:48:48.883Z,100.00
2019-05-19T22:51:22.849Z,100.00
2019-05-19T22:53:54.729Z,100.00
2019-05-19T22:56:30.962Z,100.00
2019-05-19T22:59:02.793Z,100.00
2019-05-19T23:01:34.449Z,100.00
2019-05-19T23:04:06.844Z,100.00
2019-05-19T23:06:38.624Z,100.00
2019-05-19T23:09:10.869Z,100.00
2019-05-19T23:11:43.149Z,100.00
2019-05-19T23:14:15.030Z,100.00
2019-05-19T23:16:46.826Z,100.00
2019-05-19T23:19:18.584Z,100.00
2019-05-19T23:21:50.435Z,100.00
2019-05-19T23:24:23.924Z,100.00
2019-05-19T23:26:56.491Z,100.00
2019-05-19T23:29:28.283Z,100.00
2019-05-19T23:32:07.224Z,100.00
2019-05-19T23:34:34.657Z,100.00
2019-05-19T23:37:06.521Z,100.00
2019-05-19T23:39:39.216Z,100.00
2019-05-19T23:42:11.235Z,100.00
2019-05-19T23:44:42.976Z,100.00
2019-05-19T23:47:16.891Z,100.00
2019-05-19T23:49:48.603Z,100.00
2019-05-19T23:52:20.294Z,100.00
2019-05-19T23:54:51.984Z,100.00
2019-05-19T23:57:23.806Z,100.00
2019-05-19T23:59:55.474Z,100.00
